Lookout, Wyoming
Current Conditions -  °F | °C
As of 1:53 AM on Sunday 23 Nov 2014 (Local Time) from KLAR Reporting Station
Overcast Overcast  
Wind Chill: 14°   Ceiling: 4900
Heat Index: 27°   Visibility: 10mi
Dew Point: 20°   Wind: 17mph
Humidity: 75%   Direction: 290°WNW
Pressure: 29.68"   Gusts: NA
Location:  41.5395°N, 105.861°W
Report Text: KLAR 230853Z AUTO 29015KT 10SM OVC049 M03/M07 A2968 RMK AO2 PK WND 33026/0831 SNE04 SLP026 P0000 60000 T10281067 51007
Loading
Personal Weather Stations






























Interactive Weather Map New forecast layout! Learn more

10-Day Weather Forecast

Advertisements
Track Severe Weather on mobile